Moose, WY

10:09 AM MST on March 02, 2015 (GMT -0700)
Jackson Hole | Change Station
CLOSE
Current Station
Airport
Location: Jackson,
Elevation: 6450 ft
Nearby Weather Stations
Active Advisory: Special Statement

Elev 6450 ft 43.61 °N, 110.74 °W | Updated 18 minutes ago

Clear
Clear
10 °F
Feels Like 0 °F
N
7
Wind Variable Wind from Variable

Today
High -- | Low -- °F
--% Chance of Precip.
Yesterday
High -- | Low -- °F
Precip. -- in
6:58 AM 6:12 PM
Waxing Gibbous, 92% visible
Pressure 29.86 in
Visibility 10.0 miles
Clouds Clear
Windchill 0 °F
Dew Point 5 °F
Humidity 79%
Rainfall 0.00 in
Snow Depth Not available.
UV 3 out of 12
Pollen 3.10 out of 12
Air Quality Not available.
Flu Activity Not available.
METAR KJAC 021651Z VRB06KT 10SM CLR M12/M15 A2986

More Conditions Fewer Conditions

Pressure 29.86 in
Visibility 10.0 miles
Clouds Clear
Windchill 0 °F
Dew Point 5 °F
Humidity 79%
Rainfall 0.00 in
Snow Depth Not available.
UV 3 out of 12
Pollen 3.10 out of 12
Air Quality Not available.
Flu Activity Not available.
METAR KJAC 021651Z VRB06KT 10SM CLR M12/M15 A2986

More Conditions Fewer Conditions

10-Day Weather Forecast

Almanac

Astronomy

Mar. 02, 2015 Rise Set
Actual Time
Civil Twilight
Nautical Twilight
Astronomical Twilight
Moon
Length of Visible Light
Length of Day
Tomorrow will be .
, % of the Moon is Illuminated

Today's Extremes

State Highs State Lows

Community

WunderPhotos

Upload Photos

1,801,852 photos uploaded!

WunderBlogs® & News

Nearby

Air Quality

  Air Quality AQ Index Pollutant
Not available.

Snow Depth

Station Depth Elevation

Earthquake Activity

City Distance Mag. Time & Date
Minimum magnitude displayed is 2.5.

Coastal Water Temperatures

Place Temperature

Nearby Weather Stations

Special Statement
Statement as of 1:53 AM MST on March 02, 2015

A change to wintry and much colder conditions are expected
tonight and Tuesday. Some snow will first move into southwest and
southern Wyoming... including Sublette and southern Lincoln
counties... as a storm system moves across Colorado this afternoon.
A second... much colder system will then move in from the north
this evening. Temperatures will drop rapidly behind a cold front
as it tracks south through the state. Periods of gusty wind and
light to moderate snow will blanket the area tonight and Tuesday.
Most valleys and basins across western Wyoming will accumulate
less than 2 inches of new snow... with around 6 inches of new snow
expected in the mountains. Gusty winds will create areas of
blowing and drifting snow... especially on mountain passes... along
with low wind chills dipping well below zero. The snow will clear
from north to south late Tuesday with a very cold night expected
Tuesday night into Wednesday morning.


Team Riverton/21